Naples, Italy

11:30 PM CET on February 14, 2016 (GMT +0100)
Naples | | Change Station
CLOSE
Current Station
Personal Weather Station
Location: Naples, Campania
Elevation: 108 ft
Nearby Weather Stations

Elev 108 ft 40.84 °N, 14.25 °E | Updated 36 seconds ago

Light Rain
Light Rain
57.9 °F
Feels Like 57.9 °F
N
0.0
Wind Variable Wind from SE
Gusts 0.0 mph

Today
High -- | Low -- °F
--% Chance of Precip.
Yesterday
High -- | Low -- °F
Precip. -- in
Pressure 29.50 in
Visibility 3.7 miles
Clouds Scattered Clouds 1500 ft
Mostly Cloudy 3000 ft
Dew Point 55 °F
Humidity 89%
Rainfall 0.10 in
Snow Depth Not available.
6:59 AM 5:35 PM
Waxing Crescent, 46% visible
METAR LIRN 142220Z 21009KT 6000 -RA SCT015 BKN030 15/14 Q0999 RERA NOSIG
Pressure 29.50 in
Visibility 3.7 miles
Clouds Scattered Clouds 1500 ft
Mostly Cloudy 3000 ft
Dew Point 55 °F
Humidity 89%
Rainfall 0.10 in
Snow Depth Not available.
6:59 AM 5:35 PM
Waxing Crescent, 46% visible
METAR LIRN 142220Z 21009KT 6000 -RA SCT015 BKN030 15/14 Q0999 RERA NOSIG

10-Day Weather Forecast

Almanac

Astronomy

Feb. 14, 2016 Rise Set
Actual Time
Civil Twilight
Nautical Twilight
Astronomical Twilight
Moon
Length of Visible Light
Length of Day
Tomorrow will be .
, % of the Moon is Illuminated

Today's Extremes

Country Highs Country Lows

Community

WunderPhotos

Upload Photos

1,892,893 photos uploaded!

WunderBlog® & News

Nearby

Air Quality

  Air Quality AQ Index Pollutant
Not available.

Snow Depth

Station Depth Elevation

Earthquake Activity

City Distance Mag. Time & Date
Minimum magnitude displayed is 2.5.

Coastal Water Temperatures

Place Temperature

Stations

Nearby Weather Stations

Station Location Temp. Windchill Dew Point Humidity Wind Precip. Elev Updated Type